sensor_id;sensor_type;location;lat;lon;timestamp;P1;durP1;ratioP1;P2;durP2;ratioP2
17052;SDS011;8643;48.824;11.422;2023-12-04T00:02:20;42.73;;;17.10;;
17052;SDS011;8643;48.824;11.422;2023-12-04T00:04:49;37.60;;;16.40;;
17052;SDS011;8643;48.824;11.422;2023-12-04T00:07:18;32.43;;;14.27;;
17052;SDS011;8643;48.824;11.422;2023-12-04T00:09:46;34.93;;;15.83;;
17052;SDS011;8643;48.824;11.422;2023-12-04T00:12:15;37.17;;;16.33;;
17052;SDS011;8643;48.824;11.422;2023-12-04T00:14:43;41.23;;;16.80;;
17052;SDS011;8643;48.824;11.422;2023-12-04T00:17:13;35.83;;;16.60;;
17052;SDS011;8643;48.824;11.422;2023-12-04T00:19:42;36.57;;;16.60;;
17052;SDS011;8643;48.824;11.422;2023-12-04T00:22:11;39.07;;;16.73;;
17052;SDS011;8643;48.824;11.422;2023-12-04T00:24:40;36.73;;;16.50;;
17052;SDS011;8643;48.824;11.422;2023-12-04T00:27:08;41.17;;;16.77;;
17052;SDS011;8643;48.824;11.422;2023-12-04T00:29:37;37.13;;;15.83;;
17052;SDS011;8643;48.824;11.422;2023-12-04T00:32:05;36.37;;;15.87;;
17052;SDS011;8643;48.824;11.422;2023-12-04T00:34:35;38.67;;;16.83;;
17052;SDS011;8643;48.824;11.422;2023-12-04T00:37:04;43.23;;;17.70;;
17052;SDS011;8643;48.824;11.422;2023-12-04T00:39:32;44.37;;;18.27;;
17052;SDS011;8643;48.824;11.422;2023-12-04T00:42:01;41.60;;;17.90;;
17052;SDS011;8643;48.824;11.422;2023-12-04T00:44:30;39.60;;;17.80;;
17052;SDS011;8643;48.824;11.422;2023-12-04T00:46:59;38.10;;;17.23;;
17052;SDS011;8643;48.824;11.422;2023-12-04T00:49:27;43.37;;;18.87;;
17052;SDS011;8643;48.824;11.422;2023-12-04T00:51:57;44.07;;;18.50;;
17052;SDS011;8643;48.824;11.422;2023-12-04T00:54:25;39.87;;;18.07;;
17052;SDS011;8643;48.824;11.422;2023-12-04T00:56:55;42.80;;;18.80;;
17052;SDS011;8643;48.824;11.422;2023-12-04T00:59:23;43.43;;;17.87;;
17052;SDS011;8643;48.824;11.422;2023-12-04T01:01:51;43.77;;;18.10;;
17052;SDS011;8643;48.824;11.422;2023-12-04T01:04:20;41.50;;;18.53;;
17052;SDS011;8643;48.824;11.422;2023-12-04T01:06:48;41.47;;;18.33;;
17052;SDS011;8643;48.824;11.422;2023-12-04T01:09:19;44.03;;;19.13;;
17052;SDS011;8643;48.824;11.422;2023-12-04T01:11:51;39.93;;;16.60;;
17052;SDS011;8643;48.824;11.422;2023-12-04T01:14:20;41.83;;;18.53;;
17052;SDS011;8643;48.824;11.422;2023-12-04T01:16:49;44.07;;;18.53;;
17052;SDS011;8643;48.824;11.422;2023-12-04T01:19:17;42.47;;;18.60;;
17052;SDS011;8643;48.824;11.422;2023-12-04T01:21:46;45.93;;;19.13;;
17052;SDS011;8643;48.824;11.422;2023-12-04T01:24:15;42.27;;;18.03;;
17052;SDS011;8643;48.824;11.422;2023-12-04T01:26:45;43.97;;;19.73;;
17052;SDS011;8643;48.824;11.422;2023-12-04T01:29:13;38.80;;;17.93;;
17052;SDS011;8643;48.824;11.422;2023-12-04T01:31:42;38.23;;;16.70;;
17052;SDS011;8643;48.824;11.422;2023-12-04T01:34:10;37.40;;;16.67;;
17052;SDS011;8643;48.824;11.422;2023-12-04T01:36:39;36.30;;;15.93;;
17052;SDS011;8643;48.824;11.422;2023-12-04T01:39:08;37.27;;;16.37;;
17052;SDS011;8643;48.824;11.422;2023-12-04T01:41:37;37.57;;;16.37;;
17052;SDS011;8643;48.824;11.422;2023-12-04T01:44:08;37.10;;;16.20;;
17052;SDS011;8643;48.824;11.422;2023-12-04T01:46:36;36.60;;;15.80;;
17052;SDS011;8643;48.824;11.422;2023-12-04T01:49:05;35.53;;;15.60;;
17052;SDS011;8643;48.824;11.422;2023-12-04T01:51:34;36.63;;;15.87;;
17052;SDS011;8643;48.824;11.422;2023-12-04T01:54:04;35.03;;;15.73;;
17052;SDS011;8643;48.824;11.422;2023-12-04T01:56:34;34.37;;;15.43;;
17052;SDS011;8643;48.824;11.422;2023-12-04T01:59:04;31.67;;;14.40;;
17052;SDS011;8643;48.824;11.422;2023-12-04T02:01:34;36.57;;;14.97;;
17052;SDS011;8643;48.824;11.422;2023-12-04T02:04:04;32.67;;;14.73;;
17052;SDS011;8643;48.824;11.422;2023-12-04T02:06:34;33.53;;;15.30;;
17052;SDS011;8643;48.824;11.422;2023-12-04T02:09:02;32.23;;;15.13;;
17052;SDS011;8643;48.824;11.422;2023-12-04T02:11:33;32.37;;;15.10;;
17052;SDS011;8643;48.824;11.422;2023-12-04T02:14:01;35.27;;;14.83;;
17052;SDS011;8643;48.824;11.422;2023-12-04T02:16:30;32.07;;;14.67;;
17052;SDS011;8643;48.824;11.422;2023-12-04T02:19:06;34.57;;;15.03;;
17052;SDS011;8643;48.824;11.422;2023-12-04T02:21:39;33.40;;;14.30;;
17052;SDS011;8643;48.824;11.422;2023-12-04T02:24:09;35.03;;;14.37;;
17052;SDS011;8643;48.824;11.422;2023-12-04T02:26:39;32.30;;;14.37;;
17052;SDS011;8643;48.824;11.422;2023-12-04T02:29:17;34.00;;;14.20;;
17052;SDS011;8643;48.824;11.422;2023-12-04T02:31:58;34.90;;;14.13;;
17052;SDS011;8643;48.824;11.422;2023-12-04T02:34:30;30.20;;;13.90;;
17052;SDS011;8643;48.824;11.422;2023-12-04T02:37:02;32.90;;;14.43;;
17052;SDS011;8643;48.824;11.422;2023-12-04T02:39:34;33.00;;;14.00;;
17052;SDS011;8643;48.824;11.422;2023-12-04T02:42:04;35.87;;;14.80;;
17052;SDS011;8643;48.824;11.422;2023-12-04T02:44:33;32.80;;;14.23;;
17052;SDS011;8643;48.824;11.422;2023-12-04T02:47:02;31.60;;;14.53;;
17052;SDS011;8643;48.824;11.422;2023-12-04T02:49:31;31.07;;;14.07;;
17052;SDS011;8643;48.824;11.422;2023-12-04T02:51:59;29.47;;;13.10;;
17052;SDS011;8643;48.824;11.422;2023-12-04T02:54:29;34.83;;;14.43;;
17052;SDS011;8643;48.824;11.422;2023-12-04T02:56:59;31.57;;;13.60;;
17052;SDS011;8643;48.824;11.422;2023-12-04T02:59:27;31.43;;;13.93;;
17052;SDS011;8643;48.824;11.422;2023-12-04T03:01:56;31.63;;;13.93;;
17052;SDS011;8643;48.824;11.422;2023-12-04T03:04:24;31.87;;;14.20;;
17052;SDS011;8643;48.824;11.422;2023-12-04T03:06:54;32.63;;;14.40;;
17052;SDS011;8643;48.824;11.422;2023-12-04T03:09:23;32.13;;;13.87;;
17052;SDS011;8643;48.824;11.422;2023-12-04T03:12:13;29.07;;;13.33;;
17052;SDS011;8643;48.824;11.422;2023-12-04T03:14:41;30.37;;;13.83;;
17052;SDS011;8643;48.824;11.422;2023-12-04T03:17:10;31.87;;;13.70;;
17052;SDS011;8643;48.824;11.422;2023-12-04T03:19:38;30.07;;;13.07;;
17052;SDS011;8643;48.824;11.422;2023-12-04T03:22:07;30.30;;;12.60;;
17052;SDS011;8643;48.824;11.422;2023-12-04T03:24:36;28.53;;;13.20;;
17052;SDS011;8643;48.824;11.422;2023-12-04T03:27:04;30.00;;;12.90;;
17052;SDS011;8643;48.824;11.422;2023-12-04T03:29:34;30.23;;;13.63;;
17052;SDS011;8643;48.824;11.422;2023-12-04T03:32:02;28.90;;;13.27;;
17052;SDS011;8643;48.824;11.422;2023-12-04T03:34:31;29.80;;;13.87;;
17052;SDS011;8643;48.824;11.422;2023-12-04T03:37:00;31.60;;;13.80;;
17052;SDS011;8643;48.824;11.422;2023-12-04T03:39:28;30.33;;;13.40;;
17052;SDS011;8643;48.824;11.422;2023-12-04T03:41:57;28.70;;;12.83;;
17052;SDS011;8643;48.824;11.422;2023-12-04T03:44:25;30.80;;;13.20;;
17052;SDS011;8643;48.824;11.422;2023-12-04T03:46:55;28.83;;;13.10;;
17052;SDS011;8643;48.824;11.422;2023-12-04T03:49:24;28.20;;;13.17;;
17052;SDS011;8643;48.824;11.422;2023-12-04T03:51:52;29.60;;;13.27;;
17052;SDS011;8643;48.824;11.422;2023-12-04T03:54:21;30.13;;;13.10;;
17052;SDS011;8643;48.824;11.422;2023-12-04T03:56:49;29.37;;;13.17;;
17052;SDS011;8643;48.824;11.422;2023-12-04T03:59:18;31.40;;;14.00;;
17052;SDS011;8643;48.824;11.422;2023-12-04T04:01:46;32.90;;;13.93;;
17052;SDS011;8643;48.824;11.422;2023-12-04T04:04:16;30.80;;;14.50;;
17052;SDS011;8643;48.824;11.422;2023-12-04T04:06:44;30.70;;;13.57;;
17052;SDS011;8643;48.824;11.422;2023-12-04T04:09:13;31.17;;;13.90;;
17052;SDS011;8643;48.824;11.422;2023-12-04T04:11:42;33.40;;;14.90;;
17052;SDS011;8643;48.824;11.422;2023-12-04T04:14:10;32.23;;;14.53;;
17052;SDS011;8643;48.824;11.422;2023-12-04T04:16:39;34.33;;;14.67;;
17052;SDS011;8643;48.824;11.422;2023-12-04T04:19:08;32.17;;;14.37;;
17052;SDS011;8643;48.824;11.422;2023-12-04T04:21:41;29.60;;;13.63;;
17052;SDS011;8643;48.824;11.422;2023-12-04T04:24:09;33.97;;;13.63;;
17052;SDS011;8643;48.824;11.422;2023-12-04T04:26:37;30.33;;;13.90;;
17052;SDS011;8643;48.824;11.422;2023-12-04T04:29:06;35.77;;;14.40;;
17052;SDS011;8643;48.824;11.422;2023-12-04T04:31:36;31.67;;;13.63;;
17052;SDS011;8643;48.824;11.422;2023-12-04T04:34:04;32.70;;;13.53;;
17052;SDS011;8643;48.824;11.422;2023-12-04T04:36:33;30.63;;;13.20;;
17052;SDS011;8643;48.824;11.422;2023-12-04T04:39:04;31.53;;;14.10;;
17052;SDS011;8643;48.824;11.422;2023-12-04T04:41:33;34.77;;;14.10;;
17052;SDS011;8643;48.824;11.422;2023-12-04T04:44:01;30.70;;;13.93;;
17052;SDS011;8643;48.824;11.422;2023-12-04T04:46:30;31.90;;;14.33;;
17052;SDS011;8643;48.824;11.422;2023-12-04T04:48:58;29.27;;;13.50;;
17052;SDS011;8643;48.824;11.422;2023-12-04T04:51:27;31.13;;;13.50;;
17052;SDS011;8643;48.824;11.422;2023-12-04T04:53:56;29.77;;;13.63;;
17052;SDS011;8643;48.824;11.422;2023-12-04T04:56:26;33.40;;;14.93;;
17052;SDS011;8643;48.824;11.422;2023-12-04T04:58:55;29.00;;;13.43;;
17052;SDS011;8643;48.824;11.422;2023-12-04T05:01:24;31.93;;;13.50;;
17052;SDS011;8643;48.824;11.422;2023-12-04T05:03:53;31.10;;;13.23;;
17052;SDS011;8643;48.824;11.422;2023-12-04T05:06:22;31.10;;;13.73;;
17052;SDS011;8643;48.824;11.422;2023-12-04T05:08:51;29.47;;;13.03;;
17052;SDS011;8643;48.824;11.422;2023-12-04T05:11:20;34.83;;;14.03;;
17052;SDS011;8643;48.824;11.422;2023-12-04T05:13:50;32.47;;;13.73;;
17052;SDS011;8643;48.824;11.422;2023-12-04T05:16:19;29.90;;;13.53;;
17052;SDS011;8643;48.824;11.422;2023-12-04T05:18:47;31.90;;;14.53;;
17052;SDS011;8643;48.824;11.422;2023-12-04T05:21:16;35.63;;;14.40;;
17052;SDS011;8643;48.824;11.422;2023-12-04T05:23:45;32.13;;;14.80;;
17052;SDS011;8643;48.824;11.422;2023-12-04T05:26:13;29.67;;;13.57;;
17052;SDS011;8643;48.824;11.422;2023-12-04T05:28:42;30.00;;;14.03;;
17052;SDS011;8643;48.824;11.422;2023-12-04T05:31:11;33.23;;;14.23;;
17052;SDS011;8643;48.824;11.422;2023-12-04T05:33:40;33.20;;;14.77;;
17052;SDS011;8643;48.824;11.422;2023-12-04T05:36:11;33.60;;;15.03;;
17052;SDS011;8643;48.824;11.422;2023-12-04T05:38:39;28.40;;;13.57;;
17052;SDS011;8643;48.824;11.422;2023-12-04T05:41:08;36.80;;;15.17;;
17052;SDS011;8643;48.824;11.422;2023-12-04T05:43:36;30.70;;;13.83;;
17052;SDS011;8643;48.824;11.422;2023-12-04T05:46:05;33.77;;;14.47;;
17052;SDS011;8643;48.824;11.422;2023-12-04T05:48:35;34.03;;;14.60;;
17052;SDS011;8643;48.824;11.422;2023-12-04T05:51:04;30.03;;;13.57;;
17052;SDS011;8643;48.824;11.422;2023-12-04T05:53:33;28.40;;;13.37;;
17052;SDS011;8643;48.824;11.422;2023-12-04T05:56:01;31.17;;;13.70;;
17052;SDS011;8643;48.824;11.422;2023-12-04T05:58:32;31.80;;;13.37;;
17052;SDS011;8643;48.824;11.422;2023-12-04T06:01:00;32.33;;;14.37;;
17052;SDS011;8643;48.824;11.422;2023-12-04T06:03:29;28.67;;;13.53;;
17052;SDS011;8643;48.824;11.422;2023-12-04T06:05:59;29.00;;;13.20;;
17052;SDS011;8643;48.824;11.422;2023-12-04T06:08:30;27.67;;;13.70;;
17052;SDS011;8643;48.824;11.422;2023-12-04T06:11:00;29.13;;;13.53;;
17052;SDS011;8643;48.824;11.422;2023-12-04T06:13:28;33.07;;;13.37;;
17052;SDS011;8643;48.824;11.422;2023-12-04T06:15:57;29.13;;;12.67;;
17052;SDS011;8643;48.824;11.422;2023-12-04T06:18:25;29.90;;;12.43;;
17052;SDS011;8643;48.824;11.422;2023-12-04T06:20:54;22.23;;;9.07;;
17052;SDS011;8643;48.824;11.422;2023-12-04T06:23:25;19.83;;;8.53;;
17052;SDS011;8643;48.824;11.422;2023-12-04T06:25:54;22.13;;;8.27;;
17052;SDS011;8643;48.824;11.422;2023-12-04T06:28:24;22.60;;;8.83;;
17052;SDS011;8643;48.824;11.422;2023-12-04T06:30:53;19.90;;;8.03;;
17052;SDS011;8643;48.824;11.422;2023-12-04T06:33:22;19.13;;;7.30;;
17052;SDS011;8643;48.824;11.422;2023-12-04T06:35:53;20.93;;;8.73;;
17052;SDS011;8643;48.824;11.422;2023-12-04T06:38:23;20.73;;;8.10;;
17052;SDS011;8643;48.824;11.422;2023-12-04T06:40:57;20.20;;;7.50;;
17052;SDS011;8643;48.824;11.422;2023-12-04T06:43:27;18.93;;;7.70;;
17052;SDS011;8643;48.824;11.422;2023-12-04T06:45:56;19.83;;;8.23;;
17052;SDS011;8643;48.824;11.422;2023-12-04T06:48:25;23.83;;;8.00;;
17052;SDS011;8643;48.824;11.422;2023-12-04T06:50:54;17.00;;;6.93;;
17052;SDS011;8643;48.824;11.422;2023-12-04T06:53:23;19.13;;;8.60;;
17052;SDS011;8643;48.824;11.422;2023-12-04T06:55:53;19.70;;;7.80;;
17052;SDS011;8643;48.824;11.422;2023-12-04T06:58:22;21.13;;;7.17;;
17052;SDS011;8643;48.824;11.422;2023-12-04T07:00:50;18.27;;;7.23;;
17052;SDS011;8643;48.824;11.422;2023-12-04T07:03:19;21.27;;;8.37;;
17052;SDS011;8643;48.824;11.422;2023-12-04T07:05:48;18.97;;;7.33;;
17052;SDS011;8643;48.824;11.422;2023-12-04T07:08:16;18.40;;;8.20;;
17052;SDS011;8643;48.824;11.422;2023-12-04T07:10:45;23.63;;;8.63;;
17052;SDS011;8643;48.824;11.422;2023-12-04T07:13:14;18.10;;;7.17;;
17052;SDS011;8643;48.824;11.422;2023-12-04T07:15:43;21.13;;;6.83;;
17052;SDS011;8643;48.824;11.422;2023-12-04T07:18:12;16.83;;;6.47;;
17052;SDS011;8643;48.824;11.422;2023-12-04T07:20:40;17.97;;;7.20;;
17052;SDS011;8643;48.824;11.422;2023-12-04T07:23:09;17.07;;;6.60;;
17052;SDS011;8643;48.824;11.422;2023-12-04T07:25:37;18.80;;;7.50;;
17052;SDS011;8643;48.824;11.422;2023-12-04T07:28:06;20.17;;;8.50;;
17052;SDS011;8643;48.824;11.422;2023-12-04T07:30:36;20.77;;;7.77;;
17052;SDS011;8643;48.824;11.422;2023-12-04T07:33:04;23.77;;;9.23;;
17052;SDS011;8643;48.824;11.422;2023-12-04T07:35:35;18.43;;;7.80;;
17052;SDS011;8643;48.824;11.422;2023-12-04T07:38:04;20.47;;;7.57;;
17052;SDS011;8643;48.824;11.422;2023-12-04T07:40:33;20.40;;;7.57;;
17052;SDS011;8643;48.824;11.422;2023-12-04T07:43:01;26.23;;;10.77;;
17052;SDS011;8643;48.824;11.422;2023-12-04T07:45:30;28.37;;;11.97;;
17052;SDS011;8643;48.824;11.422;2023-12-04T07:48:02;21.83;;;8.37;;
17052;SDS011;8643;48.824;11.422;2023-12-04T07:50:32;22.50;;;8.70;;
17052;SDS011;8643;48.824;11.422;2023-12-04T07:53:01;24.80;;;10.73;;
17052;SDS011;8643;48.824;11.422;2023-12-04T07:55:30;28.83;;;12.87;;
17052;SDS011;8643;48.824;11.422;2023-12-04T07:58:00;23.97;;;8.83;;
17052;SDS011;8643;48.824;11.422;2023-12-04T08:00:29;24.83;;;8.53;;
17052;SDS011;8643;48.824;11.422;2023-12-04T08:02:58;20.27;;;8.13;;
17052;SDS011;8643;48.824;11.422;2023-12-04T08:05:28;22.17;;;8.73;;
17052;SDS011;8643;48.824;11.422;2023-12-04T08:07:58;21.93;;;8.30;;
17052;SDS011;8643;48.824;11.422;2023-12-04T08:10:27;19.97;;;7.90;;
17052;SDS011;8643;48.824;11.422;2023-12-04T08:12:55;19.37;;;7.57;;
17052;SDS011;8643;48.824;11.422;2023-12-04T08:15:25;21.70;;;7.40;;
17052;SDS011;8643;48.824;11.422;2023-12-04T08:17:53;21.27;;;8.37;;
17052;SDS011;8643;48.824;11.422;2023-12-04T08:20:24;21.07;;;7.37;;
17052;SDS011;8643;48.824;11.422;2023-12-04T08:23:06;18.40;;;7.20;;
17052;SDS011;8643;48.824;11.422;2023-12-04T08:25:35;21.70;;;8.37;;
17052;SDS011;8643;48.824;11.422;2023-12-04T08:28:05;23.07;;;8.60;;
17052;SDS011;8643;48.824;11.422;2023-12-04T08:30:35;21.53;;;8.57;;
17052;SDS011;8643;48.824;11.422;2023-12-04T08:33:04;20.87;;;8.47;;
17052;SDS011;8643;48.824;11.422;2023-12-04T08:35:33;18.80;;;7.93;;
17052;SDS011;8643;48.824;11.422;2023-12-04T08:38:01;22.23;;;8.93;;
17052;SDS011;8643;48.824;11.422;2023-12-04T08:40:31;21.33;;;8.83;;
17052;SDS011;8643;48.824;11.422;2023-12-04T08:43:00;17.50;;;7.70;;
17052;SDS011;8643;48.824;11.422;2023-12-04T08:45:30;20.03;;;8.63;;
17052;SDS011;8643;48.824;11.422;2023-12-04T08:48:00;20.30;;;8.47;;
17052;SDS011;8643;48.824;11.422;2023-12-04T08:50:28;17.73;;;8.03;;
17052;SDS011;8643;48.824;11.422;2023-12-04T08:52:57;19.60;;;7.63;;
17052;SDS011;8643;48.824;11.422;2023-12-04T08:55:25;21.20;;;8.20;;
17052;SDS011;8643;48.824;11.422;2023-12-04T08:57:56;17.97;;;7.80;;
17052;SDS011;8643;48.824;11.422;2023-12-04T09:00:24;21.00;;;8.63;;
17052;SDS011;8643;48.824;11.422;2023-12-04T09:02:53;20.17;;;8.03;;
17052;SDS011;8643;48.824;11.422;2023-12-04T09:05:33;22.50;;;9.07;;
17052;SDS011;8643;48.824;11.422;2023-12-04T09:08:02;19.37;;;7.83;;
17052;SDS011;8643;48.824;11.422;2023-12-04T09:10:34;20.00;;;8.37;;
17052;SDS011;8643;48.824;11.422;2023-12-04T09:13:23;19.17;;;7.90;;
17052;SDS011;8643;48.824;11.422;2023-12-04T09:15:52;17.77;;;7.30;;
17052;SDS011;8643;48.824;11.422;2023-12-04T09:18:21;16.50;;;7.73;;
17052;SDS011;8643;48.824;11.422;2023-12-04T09:20:50;19.77;;;7.70;;
17052;SDS011;8643;48.824;11.422;2023-12-04T09:23:19;20.93;;;8.73;;
17052;SDS011;8643;48.824;11.422;2023-12-04T09:25:48;19.13;;;7.60;;
17052;SDS011;8643;48.824;11.422;2023-12-04T09:28:17;21.37;;;8.20;;
17052;SDS011;8643;48.824;11.422;2023-12-04T09:30:46;17.47;;;6.80;;
17052;SDS011;8643;48.824;11.422;2023-12-04T09:33:15;21.13;;;8.57;;
17052;SDS011;8643;48.824;11.422;2023-12-04T09:35:44;18.73;;;8.20;;
17052;SDS011;8643;48.824;11.422;2023-12-04T09:38:12;20.13;;;8.20;;
17052;SDS011;8643;48.824;11.422;2023-12-04T09:40:41;18.67;;;8.37;;
17052;SDS011;8643;48.824;11.422;2023-12-04T09:43:09;22.53;;;8.73;;
17052;SDS011;8643;48.824;11.422;2023-12-04T09:45:38;21.43;;;9.07;;
17052;SDS011;8643;48.824;11.422;2023-12-04T09:48:09;19.87;;;8.10;;
17052;SDS011;8643;48.824;11.422;2023-12-04T09:50:38;19.43;;;8.27;;
17052;SDS011;8643;48.824;11.422;2023-12-04T09:53:09;20.33;;;9.40;;
17052;SDS011;8643;48.824;11.422;2023-12-04T09:55:40;17.47;;;8.17;;
17052;SDS011;8643;48.824;11.422;2023-12-04T09:58:08;20.87;;;8.43;;
17052;SDS011;8643;48.824;11.422;2023-12-04T10:00:42;16.73;;;8.37;;
17052;SDS011;8643;48.824;11.422;2023-12-04T10:03:13;19.57;;;8.30;;
17052;SDS011;8643;48.824;11.422;2023-12-04T10:05:43;19.77;;;7.73;;
17052;SDS011;8643;48.824;11.422;2023-12-04T10:08:13;20.17;;;9.60;;
17052;SDS011;8643;48.824;11.422;2023-12-04T10:10:42;20.20;;;8.40;;
17052;SDS011;8643;48.824;11.422;2023-12-04T10:13:11;19.40;;;8.20;;
17052;SDS011;8643;48.824;11.422;2023-12-04T10:16:00;19.37;;;8.53;;
17052;SDS011;8643;48.824;11.422;2023-12-04T10:18:30;20.00;;;8.57;;
17052;SDS011;8643;48.824;11.422;2023-12-04T10:20:59;16.73;;;8.30;;
17052;SDS011;8643;48.824;11.422;2023-12-04T10:23:36;20.00;;;9.40;;
17052;SDS011;8643;48.824;11.422;2023-12-04T10:26:07;18.57;;;8.80;;
17052;SDS011;8643;48.824;11.422;2023-12-04T10:28:36;20.93;;;9.63;;
17052;SDS011;8643;48.824;11.422;2023-12-04T10:31:05;21.37;;;9.73;;
17052;SDS011;8643;48.824;11.422;2023-12-04T10:33:35;17.00;;;7.97;;
17052;SDS011;8643;48.824;11.422;2023-12-04T10:36:10;19.37;;;8.47;;
17052;SDS011;8643;48.824;11.422;2023-12-04T10:38:39;18.57;;;8.87;;
17052;SDS011;8643;48.824;11.422;2023-12-04T10:41:11;17.40;;;7.60;;
17052;SDS011;8643;48.824;11.422;2023-12-04T10:43:46;19.40;;;8.30;;
17052;SDS011;8643;48.824;11.422;2023-12-04T10:46:26;17.00;;;7.93;;
17052;SDS011;8643;48.824;11.422;2023-12-04T10:48:57;21.17;;;8.77;;
17052;SDS011;8643;48.824;11.422;2023-12-04T10:51:29;18.87;;;8.10;;
17052;SDS011;8643;48.824;11.422;2023-12-04T10:53:59;22.90;;;8.87;;
17052;SDS011;8643;48.824;11.422;2023-12-04T10:56:30;19.30;;;8.53;;
17052;SDS011;8643;48.824;11.422;2023-12-04T10:59:05;16.27;;;7.37;;
17052;SDS011;8643;48.824;11.422;2023-12-04T11:01:44;21.57;;;9.60;;
17052;SDS011;8643;48.824;11.422;2023-12-04T11:04:16;20.93;;;9.73;;
17052;SDS011;8643;48.824;11.422;2023-12-04T11:06:48;23.53;;;9.03;;
17052;SDS011;8643;48.824;11.422;2023-12-04T11:09:21;21.17;;;8.40;;
17052;SDS011;8643;48.824;11.422;2023-12-04T11:11:55;21.77;;;9.33;;
17052;SDS011;8643;48.824;11.422;2023-12-04T11:14:31;22.17;;;8.97;;
17052;SDS011;8643;48.824;11.422;2023-12-04T11:17:08;20.33;;;8.67;;
17052;SDS011;8643;48.824;11.422;2023-12-04T11:19:49;22.07;;;8.87;;
17052;SDS011;8643;48.824;11.422;2023-12-04T11:22:22;18.93;;;8.43;;
17052;SDS011;8643;48.824;11.422;2023-12-04T11:24:53;22.70;;;8.23;;
17052;SDS011;8643;48.824;11.422;2023-12-04T11:27:23;18.43;;;9.07;;
17052;SDS011;8643;48.824;11.422;2023-12-04T11:29:52;23.83;;;9.67;;
17052;SDS011;8643;48.824;11.422;2023-12-04T11:32:22;20.27;;;8.87;;
17052;SDS011;8643;48.824;11.422;2023-12-04T11:34:58;22.10;;;9.77;;
17052;SDS011;8643;48.824;11.422;2023-12-04T11:37:29;22.10;;;9.33;;
17052;SDS011;8643;48.824;11.422;2023-12-04T11:39:58;23.73;;;9.43;;
17052;SDS011;8643;48.824;11.422;2023-12-04T11:42:32;20.03;;;9.17;;
17052;SDS011;8643;48.824;11.422;2023-12-04T11:45:00;24.07;;;9.50;;
17052;SDS011;8643;48.824;11.422;2023-12-04T11:47:30;23.03;;;9.53;;
17052;SDS011;8643;48.824;11.422;2023-12-04T11:50:02;23.50;;;10.23;;
17052;SDS011;8643;48.824;11.422;2023-12-04T11:52:33;19.43;;;8.20;;
17052;SDS011;8643;48.824;11.422;2023-12-04T11:55:03;21.13;;;9.00;;
17052;SDS011;8643;48.824;11.422;2023-12-04T11:57:34;18.77;;;8.43;;
17052;SDS011;8643;48.824;11.422;2023-12-04T12:00:08;20.63;;;9.10;;
17052;SDS011;8643;48.824;11.422;2023-12-04T12:02:41;23.27;;;9.67;;
17052;SDS011;8643;48.824;11.422;2023-12-04T12:05:49;23.63;;;10.17;;
17052;SDS011;8643;48.824;11.422;2023-12-04T12:08:19;22.77;;;9.17;;
17052;SDS011;8643;48.824;11.422;2023-12-04T12:10:50;21.77;;;9.50;;
17052;SDS011;8643;48.824;11.422;2023-12-04T12:13:21;25.03;;;10.40;;
17052;SDS011;8643;48.824;11.422;2023-12-04T12:15:52;21.67;;;9.77;;
17052;SDS011;8643;48.824;11.422;2023-12-04T12:18:21;21.93;;;9.50;;
17052;SDS011;8643;48.824;11.422;2023-12-04T12:20:55;20.70;;;9.30;;
17052;SDS011;8643;48.824;11.422;2023-12-04T12:23:24;21.00;;;9.23;;
17052;SDS011;8643;48.824;11.422;2023-12-04T12:25:54;22.80;;;9.23;;
17052;SDS011;8643;48.824;11.422;2023-12-04T12:28:23;24.73;;;10.43;;
17052;SDS011;8643;48.824;11.422;2023-12-04T12:30:52;20.33;;;9.33;;
17052;SDS011;8643;48.824;11.422;2023-12-04T12:33:20;22.07;;;9.57;;
17052;SDS011;8643;48.824;11.422;2023-12-04T12:35:50;26.53;;;10.63;;
17052;SDS011;8643;48.824;11.422;2023-12-04T12:38:30;21.93;;;11.17;;
17052;SDS011;8643;48.824;11.422;2023-12-04T12:41:04;22.40;;;10.07;;
17052;SDS011;8643;48.824;11.422;2023-12-04T12:43:37;23.40;;;10.43;;
17052;SDS011;8643;48.824;11.422;2023-12-04T12:46:05;21.57;;;9.57;;
17052;SDS011;8643;48.824;11.422;2023-12-04T12:48:34;22.43;;;9.17;;
17052;SDS011;8643;48.824;11.422;2023-12-04T12:51:03;23.20;;;10.60;;
17052;SDS011;8643;48.824;11.422;2023-12-04T12:53:34;21.40;;;10.30;;
17052;SDS011;8643;48.824;11.422;2023-12-04T12:56:03;25.13;;;10.07;;
17052;SDS011;8643;48.824;11.422;2023-12-04T12:58:33;25.93;;;10.97;;
17052;SDS011;8643;48.824;11.422;2023-12-04T13:01:02;23.80;;;9.83;;
17052;SDS011;8643;48.824;11.422;2023-12-04T13:03:32;25.57;;;11.13;;
17052;SDS011;8643;48.824;11.422;2023-12-04T13:06:00;26.60;;;11.10;;
17052;SDS011;8643;48.824;11.422;2023-12-04T13:08:29;23.47;;;11.20;;
17052;SDS011;8643;48.824;11.422;2023-12-04T13:10:59;24.60;;;10.93;;
17052;SDS011;8643;48.824;11.422;2023-12-04T13:13:28;23.13;;;10.17;;
17052;SDS011;8643;48.824;11.422;2023-12-04T13:15:58;26.77;;;10.60;;
17052;SDS011;8643;48.824;11.422;2023-12-04T13:18:27;25.00;;;10.60;;
17052;SDS011;8643;48.824;11.422;2023-12-04T13:20:58;25.00;;;10.90;;
17052;SDS011;8643;48.824;11.422;2023-12-04T13:23:26;25.47;;;10.50;;
17052;SDS011;8643;48.824;11.422;2023-12-04T13:25:55;24.23;;;10.70;;
17052;SDS011;8643;48.824;11.422;2023-12-04T13:28:25;24.60;;;10.60;;
17052;SDS011;8643;48.824;11.422;2023-12-04T13:31:05;22.90;;;9.80;;
17052;SDS011;8643;48.824;11.422;2023-12-04T13:33:34;23.13;;;10.17;;
17052;SDS011;8643;48.824;11.422;2023-12-04T13:36:03;24.93;;;10.83;;
17052;SDS011;8643;48.824;11.422;2023-12-04T13:38:32;27.77;;;12.03;;
17052;SDS011;8643;48.824;11.422;2023-12-04T13:41:03;23.47;;;10.43;;
17052;SDS011;8643;48.824;11.422;2023-12-04T13:43:57;25.83;;;12.13;;
17052;SDS011;8643;48.824;11.422;2023-12-04T13:46:26;27.67;;;11.33;;
17052;SDS011;8643;48.824;11.422;2023-12-04T13:48:56;24.90;;;11.17;;
17052;SDS011;8643;48.824;11.422;2023-12-04T13:51:25;26.23;;;12.30;;
17052;SDS011;8643;48.824;11.422;2023-12-04T13:53:54;23.37;;;11.37;;
17052;SDS011;8643;48.824;11.422;2023-12-04T13:56:27;24.40;;;10.87;;
17052;SDS011;8643;48.824;11.422;2023-12-04T13:59:14;22.97;;;10.77;;
17052;SDS011;8643;48.824;11.422;2023-12-04T14:01:47;27.80;;;11.90;;
17052;SDS011;8643;48.824;11.422;2023-12-04T14:04:18;24.17;;;10.77;;
17052;SDS011;8643;48.824;11.422;2023-12-04T14:06:50;28.00;;;11.50;;
17052;SDS011;8643;48.824;11.422;2023-12-04T14:09:20;23.13;;;10.93;;
17052;SDS011;8643;48.824;11.422;2023-12-04T14:11:48;24.93;;;10.53;;
17052;SDS011;8643;48.824;11.422;2023-12-04T14:14:19;25.87;;;10.70;;
17052;SDS011;8643;48.824;11.422;2023-12-04T14:16:47;29.17;;;11.70;;
17052;SDS011;8643;48.824;11.422;2023-12-04T14:19:16;24.67;;;10.87;;
17052;SDS011;8643;48.824;11.422;2023-12-04T14:21:48;29.07;;;12.80;;
17052;SDS011;8643;48.824;11.422;2023-12-04T14:24:16;33.53;;;14.10;;
17052;SDS011;8643;48.824;11.422;2023-12-04T14:26:45;30.60;;;12.53;;
17052;SDS011;8643;48.824;11.422;2023-12-04T14:29:14;33.50;;;13.60;;
17052;SDS011;8643;48.824;11.422;2023-12-04T14:31:46;27.83;;;12.23;;
17052;SDS011;8643;48.824;11.422;2023-12-04T14:34:15;30.30;;;12.20;;
17052;SDS011;8643;48.824;11.422;2023-12-04T14:36:44;29.30;;;13.33;;
17052;SDS011;8643;48.824;11.422;2023-12-04T14:39:12;33.27;;;13.70;;
17052;SDS011;8643;48.824;11.422;2023-12-04T14:41:44;30.17;;;12.37;;
17052;SDS011;8643;48.824;11.422;2023-12-04T14:44:13;27.17;;;10.87;;